createdAt,value
2017-11-01T00:00:44.694Z,82.4
2017-11-01T00:17:23.779Z,82.4
2017-11-01T00:34:01.118Z,82.4
2017-11-01T00:50:39.789Z,82.4
2017-11-01T01:07:17.785Z,82.4
2017-11-01T01:23:56.622Z,82.4
2017-11-01T01:40:34.560Z,82.4
2017-11-01T01:57:12.926Z,83.2
2017-11-01T02:13:54.808Z,82.8
2017-11-01T02:30:29.795Z,83.2
2017-11-01T02:47:08.354Z,83.6
2017-11-01T03:03:46.731Z,83.6
2017-11-01T03:20:25.185Z,83.6
2017-11-01T03:37:03.713Z,83.6
2017-11-01T03:53:42.326Z,83.6
2017-11-01T04:10:20.864Z,83.6
2017-11-01T04:26:59.452Z,83.6
2017-11-01T04:43:38.031Z,84.0
2017-11-01T05:00:16.602Z,84.4
2017-11-01T05:33:33.858Z,84.4
2017-11-01T05:50:12.490Z,84.4
2017-11-01T06:06:51.116Z,84.4
2017-11-01T06:23:29.787Z,84.4
2017-11-01T06:40:08.528Z,84.4
2017-11-01T06:56:47.257Z,84.8
2017-11-01T07:13:26.159Z,84.4
2017-11-01T07:30:05.106Z,84.8
2017-11-01T07:46:44.065Z,84.8
2017-11-01T08:03:23.110Z,85.2
2017-11-01T08:20:02.172Z,85.2
2017-11-01T08:36:41.297Z,85.6
2017-11-01T08:53:20.296Z,85.6
2017-11-01T09:10:00.093Z,85.6
2017-11-01T09:26:38.928Z,85.6
2017-11-01T09:43:18.391Z,85.2
2017-11-01T09:59:58.057Z,84.8
2017-11-01T10:16:37.783Z,84.8
2017-11-01T10:33:17.939Z,84.8
2017-11-01T10:49:58.808Z,84.8
2017-11-01T11:06:38.467Z,84.0
2017-11-01T11:23:18.872Z,84.0
2017-11-01T11:39:59.258Z,84.0
2017-11-01T11:56:39.731Z,83.6
2017-11-01T12:13:20.288Z,83.6
2017-11-01T12:30:00.569Z,83.2
2017-11-01T12:46:41.728Z,82.4
2017-11-01T13:03:22.846Z,82.0
2017-11-01T13:20:03.994Z,81.2
2017-11-01T13:36:45.142Z,80.8
2017-11-01T13:53:26.409Z,80.8
2017-11-01T14:10:07.928Z,80.0
2017-11-01T14:26:49.622Z,79.2
2017-11-01T15:00:12.482Z,79.2
2017-11-01T15:16:53.758Z,78.8
2017-11-01T15:33:34.794Z,78.8
2017-11-01T15:50:15.808Z,78.8
2017-11-01T16:06:56.605Z,78.8
2017-11-01T16:23:37.135Z,79.2
2017-11-01T16:40:17.906Z,79.6
2017-11-01T16:56:58.208Z,79.6
2017-11-01T17:13:38.780Z,79.2
2017-11-01T17:30:19.352Z,79.2
2017-11-01T17:46:59.821Z,78.8
2017-11-01T18:03:40.268Z,79.2
2017-11-01T18:20:21.244Z,78.8
2017-11-01T18:37:01.161Z,78.8
2017-11-01T18:53:42.144Z,78.8
2017-11-01T19:10:21.976Z,78.8
2017-11-01T19:27:03.160Z,78.4
2017-11-01T19:43:42.746Z,77.6
2017-11-01T20:00:23.184Z,77.2
2017-11-01T20:17:03.700Z,76.8
2017-11-01T20:33:44.444Z,76.8
2017-11-01T20:50:25.006Z,77.6
2017-11-01T21:07:05.789Z,77.2
2017-11-01T21:23:45.796Z,77.2
2017-11-01T21:40:25.769Z,77.2
2017-11-01T21:57:05.774Z,77.6
2017-11-01T22:13:45.664Z,77.2
2017-11-01T22:30:25.594Z,76.8
2017-11-01T22:47:05.569Z,76.4
2017-11-01T23:03:45.840Z,76.4
2017-11-01T23:20:25.548Z,76.4
2017-11-01T23:37:05.587Z,76.0
2017-11-01T23:53:45.789Z,76.0
